Skip Navigation Links
NOAA logo - Click to go to the NOAA homepage
NOAA's National Weather Service
Alaska Aviation Weather Unit
  NWS logo - Click to go to the NWS homepage
Left Navbar Graphic     12 AKDT = 20 GMT

   
NOAA is celebrating 200 years of science, service, and stewardship. Visit the NOAA 200th celebration Web site to learn more.
USA.gov is the U.S. Government's official Web portal to all Federal, state and local government Web resources and services.
Facebook
NWS on Facebook

Important Change Regarding the AAWU Web Presence

 

Over the last several months, the AAWU has been working to navigate its webpages to a nationally supported server. Security, as well as other needs, have necessitated the change.  We have been given an extension for the site changeover while we diligently work at addressing feedback received. As of July 14, 2017, aawu.arh.noaa.gov will be discontinued. The new AAWU web address is weather.gov/aawu. It is now live and will run in-parallel with the old site until it is discontinued on July 14, 2017. Please continue to send any feedback or questions regarding the new webpages to nws.ar.aawu.webauthors@noaa.gov.  Thank you for your patience during this time of transition.
AAWU Home :: Display TAF Add Bookmark
SPECI PASO 251408Z AUTO 00000KT 10SM FEW028 12/11 A3002 RMK AO2
     T01170106 TSNO=

METAR PASO 251453Z AUTO 00000KT 10SM OVC036 12/11 A3002 RMK AO2
    SLP165 T01220111 58006 TSNO=

METAR PASO 251553Z AUTO 33003KT 10SM OVC033 13/11 A3002 RMK AO2 SLP164
     T01280106 TSNO=

METAR PASO 251653Z AUTO 00000KT 10SM OVC036 13/11 A3001 RMK AO2
    SLP163 T01330111 TSNO=

METAR PASO 251753Z AUTO 03003KT 10SM FEW055 BKN080 14/12 A3001 RMK
    AO2 SLP161 T01390117 10144 20117 58004 TSNO=

METAR PASO 251853Z AUTO 19006KT 10SM FEW036 BKN080 14/12 A3000 RMK AO2
     SLP159 T01440117 TSNO=

METAR PASO 251953Z AUTO 20007KT 10SM OVC075 16/12 A3000 RMK AO2
    SLP157 T01560117 TSNO=


NOAA's National Weather Service
Alaska Aviation Weather Unit
6930 Sand Lake Road
Anchorage, AK 99502-1845
Disclaimer
Credits
Glossary
Privacy Policy
About Us
Career Opportunities
Contact AAWU Internet Services Site last modified: April, 17th 2012